createdAt,value
2022-08-17T00:00:43.456Z,24.36
2022-08-17T00:03:27.453Z,24.42
2022-08-17T00:06:17.796Z,24.52
2022-08-17T00:09:00.025Z,24.36
2022-08-17T00:11:37.980Z,24.23
2022-08-17T00:14:13.072Z,24.27
2022-08-17T00:16:50.435Z,24.54
2022-08-17T00:19:27.161Z,24.78
2022-08-17T00:22:32.563Z,24.71
2022-08-17T00:24:47.912Z,24.73
2022-08-17T00:27:15.807Z,24.95
2022-08-17T00:29:46.134Z,25.04
2022-08-17T00:33:14.541Z,24.75
2022-08-17T00:35:07.260Z,24.42
2022-08-17T00:37:37.305Z,24.29
2022-08-17T00:40:07.224Z,24.32
2022-08-17T00:42:36.516Z,24.35
2022-08-17T00:45:07.796Z,24.57
2022-08-17T00:47:38.804Z,24.68
2022-08-17T00:50:10.278Z,24.58
2022-08-17T00:52:56.567Z,24.51
2022-08-17T00:55:26.971Z,24.43
2022-08-17T00:57:58.844Z,24.28
2022-08-17T01:00:33.392Z,24.24
2022-08-17T01:03:10.709Z,24.12
2022-08-17T01:05:42.328Z,24.04
2022-08-17T01:08:15.491Z,24.09
2022-08-17T01:10:59.865Z,24.18
2022-08-17T01:13:42.110Z,24.36
2022-08-17T01:16:33.782Z,24.42
2022-08-17T01:19:11.749Z,24.23
2022-08-17T01:22:06.537Z,24.08
2022-08-17T01:24:37.804Z,24.05
2022-08-17T01:27:10.264Z,24.05
2022-08-17T01:29:43.429Z,23.96
2022-08-17T01:32:16.294Z,23.93
2022-08-17T01:34:50.266Z,23.90
2022-08-17T01:37:27.964Z,23.82
2022-08-17T01:40:41.109Z,24.11
2022-08-17T01:43:33.622Z,24.21
2022-08-17T01:46:03.999Z,23.96
2022-08-17T01:48:36.933Z,23.78
2022-08-17T01:51:06.624Z,23.76
2022-08-17T01:53:43.255Z,23.80
2022-08-17T01:56:16.360Z,24.01
2022-08-17T01:58:46.448Z,24.24
2022-08-17T02:01:18.917Z,24.20
2022-08-17T02:03:59.446Z,23.85
2022-08-17T02:06:52.475Z,23.97
2022-08-17T02:09:29.734Z,23.87
2022-08-17T02:12:38.020Z,23.92
2022-08-17T02:14:53.176Z,24.21
2022-08-17T02:17:21.918Z,24.41
2022-08-17T02:19:51.694Z,24.27
2022-08-17T02:22:23.941Z,24.03
2022-08-17T02:25:00.983Z,23.80
2022-08-17T02:27:30.775Z,23.70
2022-08-17T02:29:59.852Z,23.84
2022-08-17T02:32:28.771Z,23.99
2022-08-17T02:34:59.607Z,24.14
2022-08-17T02:37:30.785Z,24.19
2022-08-17T02:40:00.245Z,24.29
2022-08-17T02:42:38.702Z,23.93
2022-08-17T02:45:15.283Z,23.82
2022-08-17T02:47:45.453Z,23.69
2022-08-17T02:50:17.055Z,23.62
2022-08-17T02:52:47.479Z,23.67
2022-08-17T02:55:34.950Z,23.64
2022-08-17T02:58:04.526Z,23.61
2022-08-17T03:00:37.040Z,23.67
2022-08-17T03:03:06.551Z,23.62
2022-08-17T03:05:38.911Z,23.70
2022-08-17T03:08:10.439Z,23.78
2022-08-17T03:10:43.835Z,23.55
2022-08-17T03:13:15.955Z,23.63
2022-08-17T03:15:48.839Z,23.89
2022-08-17T03:18:24.716Z,24.06
2022-08-17T03:21:00.126Z,24.02
2022-08-17T03:23:29.731Z,23.80
2022-08-17T03:26:00.666Z,23.72
2022-08-17T03:28:31.037Z,23.59
2022-08-17T03:30:59.784Z,23.56
2022-08-17T03:33:28.313Z,23.60
2022-08-17T03:35:59.793Z,23.65
2022-08-17T03:38:28.023Z,23.76
2022-08-17T03:40:59.925Z,23.76
2022-08-17T03:43:32.868Z,23.75
2022-08-17T03:46:27.591Z,23.72
2022-08-17T03:49:27.713Z,23.65
2022-08-17T03:52:18.813Z,23.67
2022-08-17T03:55:07.326Z,23.67
2022-08-17T03:57:37.282Z,23.57
2022-08-17T04:00:06.966Z,23.52
2022-08-17T04:02:37.362Z,23.68
2022-08-17T04:05:06.324Z,23.91
2022-08-17T04:07:36.706Z,24.13
2022-08-17T04:10:05.252Z,24.20
2022-08-17T04:12:51.450Z,24.03
2022-08-17T04:15:20.130Z,24.05
2022-08-17T04:17:49.166Z,23.92
2022-08-17T04:20:25.836Z,23.81
2022-08-17T04:23:02.359Z,23.80
2022-08-17T04:25:42.197Z,23.84
2022-08-17T04:28:15.748Z,23.91
2022-08-17T04:30:46.646Z,23.94
2022-08-17T04:33:26.920Z,23.94
2022-08-17T04:36:01.685Z,23.88
2022-08-17T04:38:37.774Z,23.93
2022-08-17T04:41:31.316Z,24.04
2022-08-17T04:44:01.866Z,24.21
2022-08-17T04:46:35.644Z,24.27
2022-08-17T04:49:07.956Z,24.28
2022-08-17T04:51:54.570Z,24.35
2022-08-17T04:54:26.393Z,24.41
2022-08-17T04:56:55.230Z,24.46
2022-08-17T04:59:24.259Z,24.51
2022-08-17T05:01:52.903Z,24.74
2022-08-17T05:04:34.288Z,24.89
2022-08-17T05:07:05.739Z,24.91
2022-08-17T05:09:35.755Z,24.96
2022-08-17T05:12:13.710Z,25.05
2022-08-17T05:14:43.101Z,25.16
2022-08-17T05:17:11.837Z,25.24
2022-08-17T05:19:39.797Z,25.39
2022-08-17T05:22:09.104Z,25.50
2022-08-17T05:24:43.504Z,25.56
2022-08-17T05:27:23.814Z,25.65
2022-08-17T05:29:52.369Z,25.73
2022-08-17T05:32:39.406Z,25.78
2022-08-17T05:35:09.120Z,25.80
2022-08-17T05:37:39.207Z,25.98
2022-08-17T05:40:08.405Z,26.08
2022-08-17T05:42:37.687Z,26.10
2022-08-17T05:45:15.119Z,26.15
2022-08-17T05:47:49.748Z,26.19
2022-08-17T05:50:33.117Z,26.24
2022-08-17T05:53:40.805Z,26.32
2022-08-17T05:56:43.775Z,26.36
2022-08-17T05:59:49.818Z,26.42
2022-08-17T06:02:44.187Z,26.39
2022-08-17T06:05:54.534Z,26.48
2022-08-17T06:08:48.344Z,26.56
2022-08-17T06:11:31.354Z,26.68
2022-08-17T06:14:07.827Z,26.67
2022-08-17T06:16:46.632Z,26.67
2022-08-17T06:19:38.547Z,26.83
2022-08-17T06:22:10.246Z,27.05
2022-08-17T06:25:02.677Z,27.15
2022-08-17T06:27:53.718Z,27.23
2022-08-17T06:30:26.136Z,27.28
2022-08-17T06:33:06.017Z,27.47
2022-08-17T06:35:57.014Z,27.63
2022-08-17T06:39:12.593Z,27.70
2022-08-17T06:42:05.306Z,27.82
2022-08-17T06:44:50.927Z,27.86
2022-08-17T06:47:55.713Z,27.86
2022-08-17T06:51:00.245Z,27.97
2022-08-17T06:54:08.362Z,28.18
2022-08-17T06:56:53.694Z,28.23
2022-08-17T06:59:54.912Z,28.20
2022-08-17T07:02:51.973Z,28.10
2022-08-17T07:05:38.826Z,28.15
2022-08-17T07:08:14.981Z,28.24
2022-08-17T07:10:45.799Z,28.29
2022-08-17T07:13:42.193Z,28.30
2022-08-17T07:16:27.719Z,28.33
2022-08-17T07:18:58.780Z,28.45
2022-08-17T07:21:52.749Z,28.54
2022-08-17T07:24:43.881Z,28.59
2022-08-17T07:27:22.184Z,28.51
2022-08-17T07:30:05.635Z,28.66
2022-08-17T07:32:41.072Z,28.73
2022-08-17T07:35:41.463Z,28.84
2022-08-17T07:38:24.691Z,28.83
2022-08-17T07:40:58.275Z,28.95
2022-08-17T07:43:38.443Z,29.00
2022-08-17T07:46:46.988Z,29.00
2022-08-17T07:49:15.778Z,29.21
2022-08-17T07:51:53.872Z,29.35
2022-08-17T07:54:31.116Z,29.47
2022-08-17T07:57:10.732Z,29.48
2022-08-17T07:59:41.247Z,29.42
2022-08-17T08:02:38.479Z,29.59
2022-08-17T08:05:32.883Z,29.79
2022-08-17T08:08:43.561Z,29.92
2022-08-17T08:11:15.688Z,30.03
2022-08-17T08:13:46.561Z,29.92
2022-08-17T08:16:29.444Z,29.64
2022-08-17T08:19:01.715Z,29.36
2022-08-17T08:21:39.756Z,29.45
2022-08-17T08:24:16.392Z,29.35
2022-08-17T08:27:34.625Z,29.19
2022-08-17T08:30:18.676Z,29.19
2022-08-17T08:33:08.701Z,29.41
2022-08-17T08:36:03.767Z,29.55
2022-08-17T08:38:53.987Z,29.74
2022-08-17T08:41:52.077Z,29.99
2022-08-17T08:44:59.899Z,30.02
2022-08-17T08:48:05.197Z,30.39
2022-08-17T08:51:05.449Z,30.40
2022-08-17T08:54:08.112Z,30.38
2022-08-17T09:00:11.153Z,30.01
2022-08-17T09:03:02.853Z,29.94
2022-08-17T09:06:32.277Z,29.82
2022-08-17T09:09:16.382Z,29.95
2022-08-17T09:12:32.665Z,30.61
2022-08-17T09:15:27.849Z,30.76
2022-08-17T09:19:01.473Z,30.60
2022-08-17T09:21:00.310Z,30.52
2022-08-17T09:23:37.043Z,30.53
2022-08-17T09:26:23.071Z,30.72
2022-08-17T09:28:54.324Z,31.12
2022-08-17T09:31:47.044Z,31.34
2022-08-17T09:34:29.527Z,31.56
2022-08-17T09:37:33.289Z,31.81
2022-08-17T09:40:26.728Z,32.05
2022-08-17T09:43:19.131Z,32.19
2022-08-17T09:45:58.929Z,32.38
2022-08-17T09:48:50.779Z,32.29
2022-08-17T09:51:22.757Z,31.82
2022-08-17T09:54:01.829Z,31.64
2022-08-17T09:57:29.125Z,31.65
2022-08-17T10:00:02.168Z,31.97
2022-08-17T10:02:57.735Z,32.17
2022-08-17T10:06:06.601Z,32.09
2022-08-17T10:08:52.755Z,32.35
2022-08-17T10:12:29.854Z,32.72
2022-08-17T10:15:19.985Z,33.14
2022-08-17T10:18:30.555Z,33.01
2022-08-17T10:21:37.996Z,33.27
2022-08-17T10:24:30.452Z,33.25
2022-08-17T10:27:03.967Z,33.08
2022-08-17T10:29:47.357Z,33.22
2022-08-17T10:32:57.116Z,33.76
2022-08-17T10:35:26.843Z,34.07
2022-08-17T10:38:34.458Z,34.06
2022-08-17T10:41:32.578Z,34.08
2022-08-17T10:44:56.945Z,33.69
2022-08-17T10:47:55.186Z,33.46
2022-08-17T10:50:46.471Z,33.56
2022-08-17T10:53:33.726Z,33.08
2022-08-17T10:56:22.540Z,32.52
2022-08-17T10:58:58.603Z,32.37
2022-08-17T11:01:42.259Z,32.01
2022-08-17T11:04:36.907Z,32.23
2022-08-17T11:07:26.869Z,32.36
2022-08-17T11:10:19.268Z,32.81
2022-08-17T11:12:54.500Z,33.26
2022-08-17T11:16:04.826Z,33.48
2022-08-17T11:19:08.613Z,33.11
2022-08-17T11:22:19.489Z,33.51
2022-08-17T11:24:54.856Z,33.53
2022-08-17T11:27:31.870Z,33.41
2022-08-17T11:30:08.086Z,33.40
2022-08-17T11:32:47.182Z,33.49
2022-08-17T11:35:40.712Z,33.61
2022-08-17T11:38:29.627Z,33.69
2022-08-17T11:41:28.272Z,33.58
2022-08-17T11:44:19.759Z,33.82
2022-08-17T11:48:08.975Z,33.85
2022-08-17T11:51:03.438Z,33.88
2022-08-17T11:53:37.961Z,33.95
2022-08-17T11:56:35.363Z,34.04
2022-08-17T11:59:26.471Z,34.06
2022-08-17T12:01:57.315Z,34.11
2022-08-17T12:04:32.305Z,34.27
2022-08-17T12:07:08.422Z,34.20
2022-08-17T12:09:45.717Z,34.28
2022-08-17T12:12:34.118Z,34.69
2022-08-17T12:15:12.090Z,34.97
2022-08-17T12:17:42.944Z,35.22
2022-08-17T12:20:24.323Z,35.77
2022-08-17T12:23:03.813Z,35.98
2022-08-17T12:25:44.611Z,35.86
2022-08-17T12:28:27.105Z,36.34
2022-08-17T12:31:03.235Z,36.57
2022-08-17T12:33:34.763Z,37.27
2022-08-17T12:36:11.177Z,37.19
2022-08-17T12:38:39.071Z,36.88
2022-08-17T12:41:27.893Z,36.51
2022-08-17T12:44:20.811Z,36.89
2022-08-17T12:47:21.615Z,36.74
2022-08-17T12:50:04.058Z,36.36
2022-08-17T12:52:34.912Z,36.24
2022-08-17T12:55:26.270Z,36.21
2022-08-17T12:58:02.322Z,35.52
2022-08-17T13:00:49.679Z,35.09
2022-08-17T13:03:35.706Z,34.85
2022-08-17T13:06:13.000Z,34.57
2022-08-17T13:08:49.426Z,34.07
2022-08-17T13:11:25.178Z,33.86
2022-08-17T13:13:59.202Z,33.57
2022-08-17T13:16:40.827Z,33.46
2022-08-17T13:19:16.806Z,34.50
2022-08-17T13:21:49.019Z,35.16
2022-08-17T13:24:26.429Z,36.31
2022-08-17T13:27:08.135Z,36.34
2022-08-17T13:29:56.130Z,36.49
2022-08-17T13:32:33.969Z,36.48
2022-08-17T13:35:35.373Z,36.99
2022-08-17T13:38:15.661Z,37.37
2022-08-17T13:40:53.092Z,36.51
2022-08-17T13:43:45.186Z,35.61
2022-08-17T13:46:31.295Z,35.38
2022-08-17T13:49:06.005Z,35.02
2022-08-17T13:51:46.061Z,34.67
2022-08-17T13:54:25.041Z,34.87
2022-08-17T13:57:02.751Z,34.04
2022-08-17T13:59:54.369Z,34.31
2022-08-17T14:02:27.519Z,34.17
2022-08-17T14:04:57.538Z,34.14
2022-08-17T14:07:39.825Z,34.18
2022-08-17T14:10:17.466Z,34.15
2022-08-17T14:12:47.172Z,33.98
2022-08-17T14:15:20.773Z,33.80
2022-08-17T14:17:50.505Z,33.72
2022-08-17T14:20:21.807Z,33.70
2022-08-17T14:22:54.346Z,33.30
2022-08-17T14:25:27.299Z,33.18
2022-08-17T14:27:56.559Z,32.96
2022-08-17T14:30:28.935Z,32.80
2022-08-17T14:32:58.947Z,32.69
2022-08-17T14:35:31.001Z,32.67
2022-08-17T14:38:05.866Z,32.55
2022-08-17T14:40:58.489Z,32.43
2022-08-17T14:43:29.835Z,32.30
2022-08-17T14:46:03.518Z,32.21
2022-08-17T14:48:39.286Z,31.96
2022-08-17T14:51:11.639Z,31.85
2022-08-17T14:53:43.837Z,31.93
2022-08-17T14:56:19.500Z,31.83
2022-08-17T14:58:49.709Z,31.86
2022-08-17T15:01:19.779Z,31.80
2022-08-17T15:03:50.389Z,31.73
2022-08-17T15:06:19.698Z,31.71
2022-08-17T15:08:51.208Z,31.61
2022-08-17T15:11:20.515Z,31.59
2022-08-17T15:14:04.418Z,31.61
2022-08-17T15:16:38.100Z,31.29
2022-08-17T15:19:07.766Z,31.30
2022-08-17T15:21:38.790Z,31.08
2022-08-17T15:24:07.266Z,30.88
2022-08-17T15:26:39.780Z,30.67
2022-08-17T15:29:10.263Z,30.61
2022-08-17T15:31:39.786Z,30.67
2022-08-17T15:34:08.788Z,30.64
2022-08-17T15:36:38.186Z,30.52
2022-08-17T15:39:09.944Z,30.46
2022-08-17T15:41:39.545Z,30.48
2022-08-17T15:44:08.036Z,30.35
2022-08-17T15:46:40.146Z,30.20
2022-08-17T15:49:10.600Z,30.31
2022-08-17T15:51:40.950Z,30.25
2022-08-17T15:54:17.220Z,30.20
2022-08-17T15:56:48.770Z,30.19
2022-08-17T15:59:16.847Z,30.16
2022-08-17T16:02:59.355Z,30.08
2022-08-17T16:04:37.988Z,30.11
2022-08-17T16:07:12.236Z,30.06
2022-08-17T16:09:39.894Z,29.94
2022-08-17T16:12:16.961Z,29.99
2022-08-17T16:14:48.408Z,29.94
2022-08-17T16:17:39.533Z,30.05
2022-08-17T16:20:08.834Z,29.86
2022-08-17T16:22:40.105Z,29.85
2022-08-17T16:25:23.357Z,29.77
2022-08-17T16:28:14.135Z,29.62
2022-08-17T16:30:43.237Z,29.43
2022-08-17T16:33:12.876Z,29.42
2022-08-17T16:35:42.792Z,29.29
2022-08-17T16:38:12.801Z,29.25
2022-08-17T16:40:42.631Z,29.32
2022-08-17T16:43:12.439Z,29.32
2022-08-17T16:45:42.531Z,29.34
2022-08-17T16:48:12.083Z,29.31
2022-08-17T16:50:42.004Z,29.32
2022-08-17T16:53:32.352Z,29.21
2022-08-17T16:56:01.133Z,29.07
2022-08-17T16:58:30.318Z,28.89
2022-08-17T17:00:59.789Z,28.70
2022-08-17T17:03:31.001Z,28.73
2022-08-17T17:06:14.411Z,28.67
2022-08-17T17:08:52.229Z,28.74
2022-08-17T17:11:53.455Z,28.75
2022-08-17T17:14:28.558Z,28.77
2022-08-17T17:17:07.007Z,28.75
2022-08-17T17:19:53.649Z,28.56
2022-08-17T17:23:07.833Z,28.37
2022-08-17T17:26:19.077Z,28.30
2022-08-17T17:28:51.307Z,28.26
2022-08-17T17:31:24.523Z,28.31
2022-08-17T17:34:00.750Z,28.38
2022-08-17T17:36:55.622Z,28.36
2022-08-17T17:39:43.788Z,28.38
2022-08-17T17:42:17.454Z,28.27
2022-08-17T17:45:08.859Z,28.26
2022-08-17T17:47:38.287Z,28.15
2022-08-17T17:50:10.689Z,28.06
2022-08-17T17:53:02.540Z,27.90
2022-08-17T17:55:47.423Z,27.88
2022-08-17T17:58:53.527Z,27.80
2022-08-17T18:01:42.016Z,27.85
2022-08-17T18:04:41.572Z,27.85
2022-08-17T18:07:20.019Z,27.86
2022-08-17T18:10:04.318Z,27.89
2022-08-17T18:13:12.160Z,27.89
2022-08-17T18:23:54.935Z,27.29
2022-08-17T18:27:08.655Z,27.41
2022-08-17T18:29:48.950Z,27.38
2022-08-17T18:32:23.001Z,27.38
2022-08-17T18:35:02.066Z,27.40
2022-08-17T18:37:37.802Z,27.41
2022-08-17T18:40:29.448Z,27.41
2022-08-17T18:43:24.598Z,27.40
2022-08-17T18:45:57.929Z,27.39
2022-08-17T18:48:39.757Z,27.41
2022-08-17T18:51:53.082Z,27.36
2022-08-17T18:54:25.279Z,27.33
2022-08-17T18:57:02.330Z,27.31
2022-08-17T18:59:45.297Z,27.20
2022-08-17T19:02:45.666Z,27.15
2022-08-17T19:05:40.123Z,27.16
2022-08-17T19:08:33.318Z,27.08
2022-08-17T19:11:07.791Z,27.12
2022-08-17T19:13:45.509Z,27.00
2022-08-17T19:16:32.657Z,27.09
2022-08-17T19:19:32.513Z,26.81
2022-08-17T19:22:39.733Z,26.71
2022-08-17T19:25:17.672Z,26.71
2022-08-17T19:27:57.289Z,26.70
2022-08-17T19:30:28.123Z,26.72
2022-08-17T19:32:59.414Z,26.75
2022-08-17T19:35:40.127Z,26.75
2022-08-17T19:38:19.402Z,26.80
2022-08-17T19:41:28.481Z,26.75
2022-08-17T19:44:09.022Z,26.84
2022-08-17T19:46:56.397Z,26.80
2022-08-17T19:49:57.357Z,26.70
2022-08-17T19:53:01.642Z,26.68
2022-08-17T19:55:53.028Z,26.72
2022-08-17T19:59:08.901Z,26.69
2022-08-17T20:02:00.976Z,26.65
2022-08-17T20:04:41.256Z,26.71
2022-08-17T20:07:18.506Z,26.73
2022-08-17T20:10:04.425Z,26.74
2022-08-17T20:12:39.132Z,26.65
2022-08-17T20:15:25.608Z,26.61
2022-08-17T20:17:57.641Z,26.50
2022-08-17T20:20:49.365Z,26.22
2022-08-17T20:23:30.287Z,26.32
2022-08-17T20:26:15.917Z,26.34
2022-08-17T20:29:10.045Z,26.34
2022-08-17T20:31:44.911Z,26.29
2022-08-17T20:34:37.309Z,25.86
2022-08-17T20:37:18.055Z,25.92
2022-08-17T20:39:58.089Z,25.85
2022-08-17T20:42:27.273Z,25.97
2022-08-17T20:45:05.931Z,25.97
2022-08-17T20:48:15.190Z,26.06
2022-08-17T20:50:51.628Z,26.07
2022-08-17T20:54:01.216Z,26.11
2022-08-17T20:56:51.538Z,26.09
2022-08-17T20:59:32.894Z,25.85
2022-08-17T21:02:18.057Z,25.91
2022-08-17T21:05:01.309Z,26.01
2022-08-17T21:07:42.765Z,25.98
2022-08-17T21:10:30.862Z,25.92
2022-08-17T21:13:15.332Z,25.75
2022-08-17T21:15:59.705Z,25.64
2022-08-17T21:18:57.754Z,25.56
2022-08-17T21:22:03.651Z,25.45
2022-08-17T21:24:31.813Z,25.34
2022-08-17T21:27:25.657Z,25.31
2022-08-17T21:30:34.281Z,25.56
2022-08-17T21:33:35.459Z,25.63
2022-08-17T21:36:12.179Z,25.55
2022-08-17T21:38:48.085Z,25.61
2022-08-17T21:41:45.664Z,25.71
2022-08-17T21:44:39.799Z,25.70
2022-08-17T21:47:26.827Z,25.50
2022-08-17T21:50:13.170Z,25.39
2022-08-17T21:52:40.966Z,25.44
2022-08-17T21:55:31.070Z,25.40
2022-08-17T21:58:13.390Z,25.27
2022-08-17T22:00:44.932Z,25.42
2022-08-17T22:03:26.041Z,25.51
2022-08-17T22:05:53.717Z,25.55
2022-08-17T22:08:24.728Z,25.48
2022-08-17T22:11:01.587Z,25.45
2022-08-17T22:13:30.035Z,25.34
2022-08-17T22:16:28.122Z,25.46
2022-08-17T22:19:04.926Z,25.52
2022-08-17T22:21:34.295Z,25.50
2022-08-17T22:24:21.927Z,25.44
2022-08-17T22:27:11.743Z,25.22
2022-08-17T22:29:48.219Z,25.11
2022-08-17T22:32:37.461Z,24.87
2022-08-17T22:35:43.303Z,24.76
2022-08-17T22:38:22.670Z,24.95
2022-08-17T22:40:57.946Z,25.02
2022-08-17T22:43:28.858Z,24.97
2022-08-17T22:46:00.270Z,25.07
2022-08-17T22:48:31.326Z,24.92
2022-08-17T22:51:12.809Z,24.96
2022-08-17T22:54:16.455Z,25.00
2022-08-17T22:57:34.487Z,25.02
2022-08-17T23:00:05.524Z,24.89
2022-08-17T23:02:35.647Z,24.77
2022-08-17T23:05:21.847Z,24.60
2022-08-17T23:07:52.714Z,24.70
2022-08-17T23:10:21.980Z,24.73
2022-08-17T23:12:50.544Z,24.73
2022-08-17T23:15:22.489Z,24.74
2022-08-17T23:17:51.434Z,24.76
2022-08-17T23:20:22.476Z,24.79
2022-08-17T23:22:52.736Z,24.89
2022-08-17T23:25:32.586Z,24.97
2022-08-17T23:28:04.350Z,24.93
2022-08-17T23:30:35.950Z,24.96
2022-08-17T23:33:17.748Z,24.78
2022-08-17T23:35:45.909Z,24.63
2022-08-17T23:38:14.813Z,24.53
2022-08-17T23:40:42.991Z,24.47
2022-08-17T23:43:24.760Z,24.56
2022-08-17T23:46:03.864Z,24.64
2022-08-17T23:48:36.793Z,24.65
2022-08-17T23:51:10.142Z,24.24
2022-08-17T23:53:45.320Z,24.44
2022-08-17T23:56:13.076Z,24.57
2022-08-17T23:58:42.677Z,24.61
